Time;durP1;ratioP1;P1;durP2;ratioP2;P2;SDS_P1;SDS_P2;PMS_P1;PMS_P2;Temp;Humidity;BMP_temperature;BMP_pressure;BME280_temperature;BME280_humidity;BME280_pressure;Samples;Min_cycle;Max_cycle;Signal;HPM_P1;HPM_P2
2024/03/09 00:00:31;;;;;;;11.07;5.07;;;8.70;61.10;;;;;;5079889;28;20061;-64
2024/03/09 00:03:00;;;;;;;10.10;5.13;;;8.60;61.20;;;;;;5086402;28;20040;-64
2024/03/09 00:05:27;;;;;;;11.60;5.70;;;8.60;61.40;;;;;;5081252;28;20032;-64
2024/03/09 00:07:54;;;;;;;18.20;6.78;;;8.60;61.50;;;;;;5085727;28;20028;-64
2024/03/09 00:10:22;;;;;;;13.43;5.80;;;8.60;61.50;;;;;;5085552;28;20032;-64
2024/03/09 00:12:49;;;;;;;11.77;7.00;;;8.60;61.70;;;;;;5080498;28;20048;-64
2024/03/09 00:15:17;;;;;;;14.40;5.97;;;8.50;61.80;;;;;;5085117;28;20020;-64
2024/03/09 00:17:43;;;;;;;14.40;5.45;;;8.50;61.90;;;;;;5081599;28;20025;-64
2024/03/09 00:20:15;;;;;;;12.40;6.22;;;8.50;62.00;;;;;;5088835;28;20482;-64
2024/03/09 00:22:43;;;;;;;13.65;6.15;;;8.50;62.10;;;;;;5082181;28;20360;-64
2024/03/09 00:25:10;;;;;;;13.45;5.72;;;8.40;62.10;;;;;;5086356;28;20032;-64
2024/03/09 00:27:38;;;;;;;13.45;5.93;;;8.50;62.20;;;;;;5083532;28;20032;-64
2024/03/09 00:30:17;;;;;;;15.68;6.85;;;8.50;62.20;;;;;;5087810;28;20119;-60
2024/03/09 00:32:53;;;;;;;12.73;6.40;;;8.40;62.20;;;;;;5082480;28;20039;-61
2024/03/09 00:35:21;;;;;;;19.27;6.05;;;8.40;62.30;;;;;;5084481;28;20029;-60
2024/03/09 00:37:48;;;;;;;16.38;7.25;;;8.40;62.40;;;;;;5083458;28;20024;-60
2024/03/09 00:40:14;;;;;;;11.32;5.65;;;8.40;62.50;;;;;;5082165;28;20044;-60
2024/03/09 00:42:41;;;;;;;13.57;5.45;;;8.40;62.50;;;;;;5081500;28;20040;-60
2024/03/09 00:45:09;;;;;;;11.13;6.63;;;8.40;62.50;;;;;;5089192;28;20082;-60
2024/03/09 00:47:37;;;;;;;15.98;6.05;;;8.40;62.60;;;;;;5079706;28;20039;-61
2024/03/09 00:50:11;;;;;;;12.50;6.18;;;8.30;62.70;;;;;;5079919;28;20028;-61
2024/03/09 00:52:37;;;;;;;12.80;6.35;;;8.30;62.80;;;;;;5075901;28;20101;-63
2024/03/09 00:55:14;;;;;;;12.00;6.82;;;8.20;62.80;;;;;;5079798;28;20051;-63
2024/03/09 00:57:50;;;;;;;11.07;6.15;;;8.20;63.00;;;;;;5082472;28;20033;-63
2024/03/09 01:00:18;;;;;;;11.45;5.20;;;8.30;63.10;;;;;;5079722;28;20455;-63
2024/03/09 01:02:47;;;;;;;14.63;6.50;;;8.20;63.00;;;;;;5080958;28;20028;-63
2024/03/09 01:05:19;;;;;;;13.43;6.57;;;8.20;63.00;;;;;;5076754;28;20090;-63
2024/03/09 01:07:45;;;;;;;10.10;4.90;;;8.20;63.20;;;;;;5072913;28;20040;-63
2024/03/09 01:10:11;;;;;;;13.18;6.18;;;8.20;63.30;;;;;;5085018;28;20024;-61
2024/03/09 01:12:39;;;;;;;16.25;7.07;;;8.10;63.40;;;;;;5080559;28;20052;-61
2024/03/09 01:15:07;;;;;;;9.45;5.45;;;8.10;63.40;;;;;;5086345;28;20105;-61
2024/03/09 01:17:36;;;;;;;13.00;5.68;;;8.10;63.50;;;;;;5085895;28;20032;-61
2024/03/09 01:20:06;;;;;;;13.98;5.68;;;8.10;63.50;;;;;;5086643;28;20024;-61
2024/03/09 01:22:34;;;;;;;12.13;5.75;;;8.10;63.50;;;;;;5079891;28;20633;-61
2024/03/09 01:25:00;;;;;;;10.75;6.07;;;8.00;63.50;;;;;;5082140;28;20492;-60
2024/03/09 01:27:26;;;;;;;17.23;7.07;;;8.00;63.80;;;;;;5082000;28;20150;-60
2024/03/09 01:29:54;;;;;;;13.70;6.30;;;8.00;63.80;;;;;;5085677;28;20055;-61
2024/03/09 01:32:22;;;;;;;17.08;6.70;;;8.00;63.90;;;;;;5085458;28;20119;-61
2024/03/09 01:34:48;;;;;;;14.25;5.93;;;7.90;64.00;;;;;;5086552;28;20056;-61
2024/03/09 01:37:19;;;;;;;16.00;6.60;;;7.90;64.00;;;;;;5088948;28;20255;-61
2024/03/09 01:39:48;;;;;;;13.85;5.80;;;7.90;64.00;;;;;;5086231;28;20659;-61
2024/03/09 01:42:18;;;;;;;15.27;6.53;;;7.90;64.00;;;;;;5087870;28;20126;-61
2024/03/09 01:44:48;;;;;;;16.33;7.65;;;7.90;64.30;;;;;;5081947;28;20020;-60
2024/03/09 01:47:21;;;;;;;8.73;5.07;;;7.90;64.20;;;;;;5075553;28;20066;-63
2024/03/09 01:49:48;;;;;;;24.17;7.80;;;7.80;64.30;;;;;;5081310;28;20545;-63
2024/03/09 01:52:14;;;;;;;15.32;5.55;;;7.80;64.60;;;;;;5083005;28;20387;-63
2024/03/09 01:54:42;;;;;;;14.85;5.97;;;7.80;64.50;;;;;;5080121;28;20035;-63
2024/03/09 01:57:09;;;;;;;16.48;6.65;;;7.80;64.50;;;;;;5080618;28;20020;-63
2024/03/09 01:59:37;;;;;;;15.80;6.97;;;7.80;64.70;;;;;;5088076;28;20032;-63
2024/03/09 02:02:04;;;;;;;15.15;7.80;;;7.70;65.30;;;;;;5071790;28;20845;-63
2024/03/09 02:04:31;;;;;;;13.25;6.75;;;7.70;64.80;;;;;;5084117;28;20032;-63
2024/03/09 02:06:57;;;;;;;15.27;7.63;;;7.70;64.90;;;;;;5081449;28;20446;-63
2024/03/09 02:09:25;;;;;;;11.18;6.43;;;7.70;64.90;;;;;;5078545;28;20103;-63
2024/03/09 02:11:51;;;;;;;21.15;6.93;;;7.60;65.00;;;;;;5077990;28;20067;-63
2024/03/09 02:14:18;;;;;;;13.77;7.97;;;7.60;65.00;;;;;;5071725;28;20033;-63
2024/03/09 02:16:44;;;;;;;15.45;6.82;;;7.60;65.10;;;;;;5071865;28;21006;-60
2024/03/09 02:19:13;;;;;;;17.98;7.57;;;7.60;65.20;;;;;;5079510;28;20044;-61
2024/03/09 02:21:46;;;;;;;15.80;7.38;;;7.60;65.20;;;;;;5088078;28;20059;-60
2024/03/09 02:24:18;;;;;;;16.08;7.03;;;7.60;65.30;;;;;;5083049;28;20430;-60
2024/03/09 02:26:44;;;;;;;;;;;7.50;65.30;;;;;;5068999;28;20033;-61
2024/03/09 02:29:13;;;;;;;10.82;6.10;;;7.50;65.30;;;;;;5085322;28;19916;-61
2024/03/09 02:31:39;;;;;;;17.77;7.25;;;7.40;65.40;;;;;;5084485;28;21112;-60
2024/03/09 02:34:07;;;;;;;14.27;6.68;;;7.40;65.50;;;;;;5085499;28;20032;-63
2024/03/09 02:36:34;;;;;;;12.35;6.75;;;7.40;65.60;;;;;;5072892;28;20032;-63
2024/03/09 02:39:02;;;;;;;13.70;5.20;;;7.30;65.60;;;;;;5081735;28;20039;-63
2024/03/09 02:41:28;;;;;;;13.57;6.25;;;7.30;65.70;;;;;;5083365;28;20028;-63
2024/03/09 02:43:55;;;;;;;13.02;6.70;;;7.30;65.80;;;;;;5085371;28;20032;-63
2024/03/09 02:46:25;;;;;;;12.65;7.40;;;7.30;65.80;;;;;;5082472;28;20410;-63
2024/03/09 02:48:55;;;;;;;14.27;5.82;;;7.30;65.80;;;;;;5083089;28;20039;-63
2024/03/09 02:51:24;;;;;;;16.65;7.15;;;7.30;65.90;;;;;;5084064;28;20028;-63
2024/03/09 02:53:51;;;;;;;15.30;6.32;;;7.30;66.00;;;;;;5086805;28;20036;-63
2024/03/09 02:56:19;;;;;;;13.05;6.68;;;7.20;66.00;;;;;;5084341;28;20041;-63
2024/03/09 02:58:46;;;;;;;9.40;5.93;;;7.20;66.00;;;;;;5086116;28;20028;-63
2024/03/09 03:01:13;;;;;;;17.60;6.90;;;7.20;66.10;;;;;;5089772;28;20077;-63
2024/03/09 03:04:00;;;;;;;14.18;7.22;;;7.20;66.10;;;;;;5083171;28;20286;-63
2024/03/09 03:06:32;;;;;;;12.98;6.30;;;7.30;66.10;;;;;;5085817;28;20024;-63
2024/03/09 03:09:18;;;;;;;13.23;6.07;;;7.20;66.10;;;;;;5083621;28;20357;-64
2024/03/09 03:11:44;;;;;;;15.05;7.22;;;7.20;66.20;;;;;;5085696;28;20557;-63
2024/03/09 03:14:10;;;;;;;18.20;8.02;;;7.20;66.40;;;;;;5084414;28;20044;-63
2024/03/09 03:16:37;;;;;;;13.50;7.20;;;7.20;66.50;;;;;;5078203;28;20043;-63
2024/03/09 03:19:09;;;;;;;10.55;6.68;;;7.10;66.40;;;;;;5080945;28;20023;-63
2024/03/09 03:21:39;;;;;;;14.20;5.93;;;7.20;66.50;;;;;;5077138;28;20779;-63
2024/03/09 03:24:09;;;;;;;14.63;8.27;;;7.10;66.50;;;;;;5080810;28;20042;-63
2024/03/09 03:26:35;;;;;;;12.80;7.32;;;7.10;66.60;;;;;;5087046;28;20109;-63
2024/03/09 03:29:01;;;;;;;13.80;6.40;;;7.10;66.60;;;;;;5088273;28;20028;-63
2024/03/09 03:31:31;;;;;;;11.43;6.32;;;7.20;66.70;;;;;;5088245;28;20466;-63
2024/03/09 03:33:57;;;;;;;14.48;6.95;;;7.10;66.60;;;;;;5081203;28;20016;-63
2024/03/09 03:36:24;;;;;;;15.45;6.57;;;7.20;66.60;;;;;;5086490;28;20016;-60
2024/03/09 03:38:50;;;;;;;12.93;6.25;;;7.10;66.60;;;;;;5085861;28;20573;-61
2024/03/09 03:41:22;;;;;;;11.65;6.38;;;7.20;66.70;;;;;;5088051;28;20024;-60
2024/03/09 03:43:48;;;;;;;13.45;6.35;;;7.10;66.60;;;;;;5087733;28;20068;-63
2024/03/09 03:46:14;;;;;;;11.98;6.55;;;7.20;66.60;;;;;;5069338;28;20510;-63
2024/03/09 03:48:44;;;;;;;13.20;5.97;;;7.10;66.60;;;;;;5082060;28;20471;-63
2024/03/09 03:51:12;;;;;;;14.05;6.03;;;7.10;66.60;;;;;;5088299;28;20032;-63
2024/03/09 03:53:42;;;;;;;9.70;5.53;;;7.20;66.70;;;;;;5090673;28;20024;-63
2024/03/09 03:56:09;;;;;;;14.35;6.10;;;7.10;66.70;;;;;;5084472;28;20028;-63
2024/03/09 03:58:37;;;;;;;8.63;4.45;;;7.10;66.70;;;;;;5090573;28;20079;-63
2024/03/09 04:01:03;;;;;;;11.07;5.38;;;7.10;66.70;;;;;;5085491;28;20558;-60
2024/03/09 04:03:31;;;;;;;11.88;5.57;;;7.10;66.80;;;;;;5089885;28;20414;-61
2024/03/09 04:05:59;;;;;;;9.02;5.75;;;7.10;66.70;;;;;;5080760;28;20040;-61
2024/03/09 04:08:26;;;;;;;12.63;6.05;;;7.20;66.80;;;;;;5086661;28;20035;-60
2024/03/09 04:10:52;;;;;;;17.20;8.07;;;7.20;66.80;;;;;;5088355;28;20024;-61
2024/03/09 04:13:23;;;;;;;14.98;7.18;;;7.20;66.80;;;;;;5084395;28;20571;-60
2024/03/09 04:15:51;;;;;;;21.50;6.38;;;7.20;66.90;;;;;;5086103;28;20024;-61
2024/03/09 04:18:18;;;;;;;9.75;5.88;;;7.20;66.80;;;;;;5075287;28;20032;-61
2024/03/09 04:20:45;;;;;;;13.18;6.57;;;7.20;66.90;;;;;;5090730;28;20434;-61
2024/03/09 04:23:15;;;;;;;14.93;7.13;;;7.20;66.90;;;;;;5085376;28;20488;-61
2024/03/09 04:25:44;;;;;;;12.20;6.28;;;7.20;67.50;;;;;;5082357;28;20032;-61
2024/03/09 04:28:20;;;;;;;11.63;7.00;;;7.20;66.90;;;;;;5089579;28;20062;-61
2024/03/09 04:30:48;;;;;;;15.07;6.45;;;7.20;66.90;;;;;;5087006;28;20424;-64
2024/03/09 04:33:15;;;;;;;13.40;6.75;;;7.20;66.90;;;;;;5075992;28;20040;-61
2024/03/09 04:35:42;;;;;;;8.77;6.03;;;7.20;66.90;;;;;;5083812;28;20047;-61
2024/03/09 04:38:09;;;;;;;13.52;6.57;;;7.20;67.00;;;;;;5084167;28;20425;-60
2024/03/09 04:40:35;;;;;;;14.05;7.13;;;7.20;66.90;;;;;;5084952;28;20583;-60
2024/03/09 04:43:05;;;;;;;16.27;6.35;;;7.20;67.00;;;;;;5087794;28;20040;-61
2024/03/09 04:45:33;;;;;;;12.10;6.78;;;7.20;67.00;;;;;;5074391;28;20040;-61
2024/03/09 04:47:59;;;;;;;13.77;7.13;;;7.20;67.10;;;;;;5081741;28;20119;-61
2024/03/09 04:50:26;;;;;;;14.32;6.28;;;7.20;67.10;;;;;;5089056;28;20046;-61
2024/03/09 04:52:52;;;;;;;15.32;7.43;;;7.20;67.10;;;;;;5083359;28;20036;-61
2024/03/09 04:55:21;;;;;;;8.57;5.10;;;7.20;67.20;;;;;;5081875;28;20024;-61
2024/03/09 04:57:50;;;;;;;12.43;5.75;;;7.20;67.20;;;;;;5083017;28;20028;-61
2024/03/09 05:00:16;;;;;;;15.02;6.25;;;7.20;67.20;;;;;;5087427;28;20031;-61
2024/03/09 05:02:46;;;;;;;13.13;7.32;;;7.20;67.10;;;;;;5081247;28;20110;-60
2024/03/09 05:05:17;;;;;;;12.52;7.25;;;7.20;67.20;;;;;;5088872;28;20506;-61
2024/03/09 05:07:52;;;;;;;10.45;6.35;;;7.20;67.10;;;;;;5081604;28;20389;-61
2024/03/09 05:10:19;;;;;;;13.70;7.22;;;7.20;67.10;;;;;;5080769;28;20476;-61
2024/03/09 05:12:50;;;;;;;9.80;5.78;;;7.10;67.20;;;;;;5087542;28;20537;-61
2024/03/09 05:15:16;;;;;;;13.38;6.25;;;7.10;67.20;;;;;;5089220;28;20024;-60
2024/03/09 05:17:42;;;;;;;10.02;5.88;;;7.10;67.20;;;;;;5079151;28;20032;-61
2024/03/09 05:20:11;;;;;;;12.05;6.50;;;7.10;67.30;;;;;;5079097;28;20020;-60
2024/03/09 05:22:41;;;;;;;12.35;6.07;;;7.10;67.30;;;;;;5080077;28;20513;-60
2024/03/09 05:25:10;;;;;;;14.70;6.43;;;7.10;67.30;;;;;;5081845;28;20483;-63
2024/03/09 05:27:43;;;;;;;12.43;6.35;;;7.00;67.30;;;;;;5078414;28;20032;-63
2024/03/09 05:30:13;;;;;;;13.38;6.82;;;7.00;67.40;;;;;;5083424;28;20128;-63
2024/03/09 05:32:41;;;;;;;14.90;7.40;;;7.00;67.50;;;;;;5068023;28;20024;-60
2024/03/09 05:35:11;;;;;;;15.48;6.65;;;7.00;67.70;;;;;;5073867;28;20058;-61
2024/03/09 05:37:39;;;;;;;13.75;6.60;;;6.90;67.60;;;;;;5085562;28;20040;-60
2024/03/09 05:40:09;;;;;;;10.23;6.05;;;6.90;67.70;;;;;;5078065;28;20497;-61
2024/03/09 05:42:36;;;;;;;17.30;8.40;;;6.80;67.70;;;;;;5079380;28;20344;-60
2024/03/09 05:45:05;;;;;;;17.35;7.55;;;6.80;67.70;;;;;;5081459;28;20039;-60
2024/03/09 05:47:31;;;;;;;11.73;6.20;;;6.80;67.80;;;;;;5081718;28;20051;-60
2024/03/09 05:49:57;;;;;;;13.20;6.15;;;6.80;67.90;;;;;;5084206;28;20024;-60
2024/03/09 05:52:23;;;;;;;13.65;7.20;;;6.80;67.90;;;;;;5086000;28;20024;-61
2024/03/09 05:54:49;;;;;;;11.32;6.22;;;6.80;67.80;;;;;;5086244;28;20078;-61
2024/03/09 05:57:15;;;;;;;12.00;4.65;;;6.80;67.80;;;;;;5077678;28;20032;-61
2024/03/09 05:59:42;;;;;;;13.75;6.28;;;6.80;67.80;;;;;;5081286;28;20024;-60
2024/03/09 06:02:09;;;;;;;15.93;6.47;;;6.80;67.80;;;;;;5076240;28;20036;-61
2024/03/09 06:04:35;;;;;;;14.63;6.32;;;6.80;67.90;;;;;;5083730;28;20040;-61
2024/03/09 06:07:01;;;;;;;15.73;7.15;;;6.80;67.90;;;;;;5083585;28;20054;-61
2024/03/09 06:09:26;;;;;;;14.00;6.63;;;6.80;67.90;;;;;;5085370;28;20467;-61
2024/03/09 06:11:52;;;;;;;14.45;6.38;;;6.70;67.90;;;;;;5080778;28;20048;-61
2024/03/09 06:14:20;;;;;;;14.45;7.45;;;6.80;68.00;;;;;;5082624;28;20055;-61
2024/03/09 06:16:46;;;;;;;11.95;5.95;;;6.80;68.00;;;;;;5068994;28;20027;-61
2024/03/09 06:19:13;;;;;;;15.52;6.22;;;6.80;68.00;;;;;;5086068;28;20035;-61
2024/03/09 06:21:39;;;;;;;12.80;6.60;;;6.80;68.00;;;;;;5083166;28;20127;-61
2024/03/09 06:24:05;;;;;;;13.52;6.90;;;6.80;68.00;;;;;;5083562;28;20162;-61
2024/03/09 06:26:31;;;;;;;14.25;6.45;;;6.80;68.00;;;;;;5083174;28;20178;-61
2024/03/09 06:28:56;;;;;;;16.30;7.93;;;6.80;68.00;;;;;;5085112;28;20029;-61
2024/03/09 06:31:22;;;;;;;9.75;6.07;;;6.80;68.00;;;;;;5086832;28;20107;-63
2024/03/09 06:33:49;;;;;;;7.95;5.45;;;6.80;68.00;;;;;;5082798;28;20039;-63
2024/03/09 06:36:15;;;;;;;9.88;6.32;;;6.80;68.00;;;;;;5058721;28;20064;-64
2024/03/09 06:38:41;;;;;;;9.55;5.43;;;6.80;67.90;;;;;;5083992;28;20052;-63
2024/03/09 06:41:09;;;;;;;11.80;5.53;;;6.90;68.00;;;;;;5082689;28;20035;-63
2024/03/09 06:43:36;;;;;;;12.07;6.07;;;6.90;67.90;;;;;;5090234;28;20482;-63
2024/03/09 06:46:08;;;;;;;11.45;5.45;;;6.90;67.80;;;;;;5086660;28;20036;-63
2024/03/09 06:48:34;;;;;;;14.95;5.53;;;7.00;67.90;;;;;;5087502;28;20036;-61
2024/03/09 06:51:00;;;;;;;9.63;5.20;;;7.00;67.80;;;;;;5067921;28;20134;-61
2024/03/09 06:53:25;;;;;;;11.75;5.82;;;7.10;67.80;;;;;;5088053;28;20035;-61
2024/03/09 06:55:52;;;;;;;14.15;6.93;;;7.10;67.80;;;;;;5081250;28;20085;-61
2024/03/09 06:58:18;;;;;;;17.33;7.20;;;7.20;67.70;;;;;;5086045;28;20031;-61
2024/03/09 07:00:43;;;;;;;11.88;5.60;;;7.20;67.70;;;;;;5081853;28;20382;-61
2024/03/09 07:03:10;;;;;;;14.30;5.55;;;7.20;67.60;;;;;;5081794;28;20536;-61
2024/03/09 07:05:35;;;;;;;8.80;5.03;;;7.20;67.50;;;;;;5080384;28;20028;-61
2024/03/09 07:08:03;;;;;;;9.88;4.97;;;7.30;67.60;;;;;;5084157;28;20060;-61
2024/03/09 07:10:30;;;;;;;9.43;5.22;;;7.30;67.60;;;;;;5088793;28;20020;-64
2024/03/09 07:12:57;;;;;;;15.73;6.90;;;7.30;67.40;;;;;;5089970;28;20044;-64
2024/03/09 07:15:25;;;;;;;13.50;5.05;;;7.40;67.50;;;;;;5076251;28;20021;-63
2024/03/09 07:17:54;;;;;;;10.52;5.72;;;7.40;67.50;;;;;;5086613;28;20071;-63
2024/03/09 07:20:23;;;;;;;12.15;6.55;;;7.50;67.60;;;;;;5084447;28;20028;-64
2024/03/09 07:22:50;;;;;;;8.18;4.95;;;7.50;67.50;;;;;;5086402;28;20482;-63
2024/03/09 07:25:24;;;;;;;13.32;7.70;;;7.50;67.40;;;;;;5084783;28;20032;-63
2024/03/09 07:27:55;;;;;;;12.27;6.22;;;7.50;67.40;;;;;;5080402;28;20047;-64
2024/03/09 07:30:22;;;;;;;13.05;6.30;;;7.50;67.40;;;;;;5080468;28;20435;-64
2024/03/09 07:32:49;;;;;;;9.82;5.38;;;7.60;67.40;;;;;;5085258;28;20032;-64
2024/03/09 07:35:16;;;;;;;10.90;5.32;;;7.60;67.40;;;;;;5087130;28;20036;-63
2024/03/09 07:37:45;;;;;;;9.43;5.68;;;7.60;67.40;;;;;;5085132;28;20032;-63
2024/03/09 07:40:16;;;;;;;13.57;6.07;;;7.70;67.30;;;;;;5089001;28;20016;-63
2024/03/09 07:42:42;;;;;;;11.73;5.50;;;7.70;67.40;;;;;;5083318;28;20847;-63
2024/03/09 07:45:13;;;;;;;12.52;6.28;;;7.70;67.20;;;;;;5082038;28;20082;-64
2024/03/09 07:47:43;;;;;;;9.88;4.60;;;7.80;67.30;;;;;;5086941;28;20490;-61
2024/03/09 07:50:14;;;;;;;14.07;6.93;;;7.80;67.30;;;;;;5088398;28;20085;-61
2024/03/09 07:53:00;;;;;;;14.05;6.15;;;7.80;67.20;;;;;;5089560;28;20406;-61
2024/03/09 07:55:27;;;;;;;9.55;5.20;;;7.80;67.20;;;;;;5088543;28;20436;-61
2024/03/09 07:57:54;;;;;;;11.52;5.47;;;7.80;67.20;;;;;;5083674;28;20078;-61
2024/03/09 08:00:27;;;;;;;9.68;5.47;;;7.80;67.10;;;;;;5087450;28;20089;-61
2024/03/09 08:02:56;;;;;;;10.10;5.30;;;7.90;67.10;;;;;;5079560;28;20115;-61
2024/03/09 08:05:23;;;;;;;12.40;6.75;;;7.90;67.10;;;;;;5084535;28;20043;-61
2024/03/09 08:07:49;;;;;;;15.63;6.90;;;7.90;67.10;;;;;;5080280;28;20029;-61
2024/03/09 08:10:23;;;;;;;12.95;5.22;;;8.00;67.20;;;;;;5082836;28;20031;-60
2024/03/09 08:12:50;;;;;;;10.27;5.43;;;7.90;67.10;;;;;;5082779;28;20044;-61
2024/03/09 08:15:16;;;;;;;9.43;5.28;;;8.00;67.20;;;;;;5076554;28;20039;-63
2024/03/09 08:17:43;;;;;;;9.45;5.30;;;8.00;67.20;;;;;;5075008;28;20086;-64
2024/03/09 08:20:13;;;;;;;9.65;5.00;;;8.00;67.20;;;;;;5082703;28;20273;-65
2024/03/09 08:22:40;;;;;;;13.63;5.50;;;8.10;67.20;;;;;;5087055;28;20028;-64
2024/03/09 08:25:07;;;;;;;9.75;5.85;;;8.10;67.10;;;;;;5089216;28;20028;-63
2024/03/09 08:27:39;;;;;;;10.13;5.60;;;8.10;67.20;;;;;;5087693;28;20357;-64
2024/03/09 08:30:14;;;;;;;12.48;4.95;;;8.10;67.20;;;;;;5084538;28;20039;-64
2024/03/09 08:32:47;;;;;;;16.15;6.53;;;8.20;67.20;;;;;;5084825;28;20531;-63
2024/03/09 08:35:15;;;;;;;10.57;5.18;;;8.20;67.10;;;;;;5086227;28;20356;-62
2024/03/09 08:37:42;;;;;;;9.45;4.75;;;8.30;67.10;;;;;;5087573;28;20020;-61
2024/03/09 08:40:09;;;;;;;16.80;4.88;;;8.30;67.00;;;;;;5082834;28;20467;-62
2024/03/09 08:42:36;;;;;;;10.75;5.10;;;8.50;67.00;;;;;;5079641;28;20152;-60
2024/03/09 08:45:05;;;;;;;12.73;5.57;;;8.60;66.90;;;;;;5069778;28;20127;-64
2024/03/09 08:47:31;;;;;;;8.55;4.47;;;8.70;66.70;;;;;;5088867;28;20093;-64
2024/03/09 08:49:57;;;;;;;13.80;5.57;;;8.70;66.60;;;;;;5079348;28;20089;-61
2024/03/09 08:52:23;;;;;;;7.43;4.38;;;8.80;66.50;;;;;;5080552;28;20039;-61
2024/03/09 08:54:50;;;;;;;9.30;4.85;;;8.90;66.40;;;;;;5086477;28;20060;-61
2024/03/09 08:57:17;;;;;;;15.63;5.50;;;8.90;66.30;;;;;;5076460;28;20047;-62
2024/03/09 08:59:48;;;;;;;10.15;4.43;;;9.00;66.30;;;;;;5082564;28;20035;-61
2024/03/09 09:02:18;;;;;;;9.07;5.03;;;9.00;66.20;;;;;;5078497;28;20119;-62
2024/03/09 09:04:43;;;;;;;9.63;4.75;;;9.00;66.20;;;;;;5067620;28;20039;-61
2024/03/09 09:07:09;;;;;;;9.15;5.00;;;9.10;66.20;;;;;;5082936;28;20036;-61
2024/03/09 09:09:35;;;;;;;6.80;4.20;;;9.20;66.10;;;;;;5084949;28;20036;-62
2024/03/09 09:12:01;;;;;;;11.68;4.50;;;9.40;65.90;;;;;;5078208;28;20040;-61
2024/03/09 09:14:27;;;;;;;8.07;4.43;;;9.50;65.40;;;;;;5085750;28;20086;-61
2024/03/09 09:16:55;;;;;;;6.63;3.70;;;9.70;65.20;;;;;;5081300;28;20091;-61
2024/03/09 09:19:22;;;;;;;11.25;4.95;;;9.70;65.10;;;;;;5073773;28;20402;-61
2024/03/09 09:21:48;;;;;;;13.90;5.57;;;9.80;65.00;;;;;;5068901;28;20326;-61
2024/03/09 09:24:16;;;;;;;9.05;4.35;;;9.80;65.00;;;;;;5070931;28;20024;-61
2024/03/09 09:26:43;;;;;;;9.05;4.72;;;9.90;65.00;;;;;;5078346;28;20432;-60
2024/03/09 09:29:10;;;;;;;7.88;3.70;;;10.00;65.00;;;;;;5074558;28;20033;-61
2024/03/09 09:31:37;;;;;;;7.05;3.70;;;10.10;64.80;;;;;;5058013;28;20051;-62
2024/03/09 09:34:02;;;;;;;11.63;4.53;;;10.30;64.50;;;;;;5079171;28;20479;-63
2024/03/09 09:36:29;;;;;;;9.45;5.00;;;10.40;64.30;;;;;;5080497;28;20048;-61
2024/03/09 09:38:58;;;;;;;9.63;4.50;;;10.60;64.60;;;;;;5085923;28;20040;-63
2024/03/09 09:41:27;;;;;;;8.45;3.72;;;10.70;63.80;;;;;;5083081;28;20472;-62
2024/03/09 09:43:58;;;;;;;7.57;3.95;;;10.80;63.70;;;;;;5088123;28;20077;-61
2024/03/09 09:46:26;;;;;;;6.60;3.50;;;10.90;63.50;;;;;;5081677;28;20059;-63
2024/03/09 09:48:55;;;;;;;9.45;4.40;;;11.10;63.30;;;;;;5081796;28;20027;-64
2024/03/09 09:51:22;;;;;;;9.43;5.10;;;11.20;63.10;;;;;;5085004;28;20036;-64
2024/03/09 09:53:52;;;;;;;9.88;3.90;;;11.30;62.90;;;;;;5085595;28;20472;-64
2024/03/09 09:56:20;;;;;;;9.77;4.13;;;11.30;62.70;;;;;;5081493;28;20115;-64
2024/03/09 09:58:47;;;;;;;8.80;4.38;;;11.50;62.60;;;;;;5086845;28;20021;-66
2024/03/09 10:01:16;;;;;;;8.35;3.75;;;11.60;62.50;;;;;;5088627;28;20501;-63
2024/03/09 10:03:44;;;;;;;6.85;4.65;;;11.70;62.20;;;;;;5077364;28;20031;-62
2024/03/09 10:06:21;;;;;;;7.78;4.03;;;11.80;62.00;;;;;;5075461;28;20051;-62
2024/03/09 10:08:52;;;;;;;10.55;4.38;;;11.90;61.90;;;;;;5079493;28;20020;-63
2024/03/09 10:11:20;;;;;;;8.32;4.75;;;12.10;61.70;;;;;;5069199;28;20467;-62
2024/03/09 10:13:47;;;;;;;11.02;5.40;;;12.00;61.30;;;;;;5072741;28;20071;-61
2024/03/09 10:16:26;;;;;;;9.27;4.50;;;12.10;61.50;;;;;;5079828;28;20128;-62
2024/03/09 10:18:52;;;;;;;11.40;3.85;;;12.10;61.50;;;;;;5068666;28;20046;-61
2024/03/09 10:21:26;;;;;;;10.13;4.80;;;12.10;61.30;;;;;;5079064;28;20042;-62
2024/03/09 10:24:06;;;;;;;8.40;4.00;;;12.30;61.30;;;;;;5083853;28;20446;-62
2024/03/09 10:26:33;;;;;;;11.90;5.55;;;12.40;61.00;;;;;;5088398;28;20119;-62
2024/03/09 10:29:00;;;;;;;7.78;3.95;;;12.50;61.00;;;;;;5089968;28;20035;-64
2024/03/09 10:31:26;;;;;;;7.15;4.53;;;12.70;61.60;;;;;;5086671;28;20124;-62
2024/03/09 10:33:56;;;;;;;9.35;4.05;;;12.90;60.70;;;;;;5074262;28;20107;-63
2024/03/09 10:36:26;;;;;;;8.48;3.78;;;13.10;60.50;;;;;;5070565;28;20031;-62
2024/03/09 10:38:54;;;;;;;7.05;4.20;;;13.30;60.20;;;;;;5075270;28;20052;-62
2024/03/09 10:41:24;;;;;;;9.48;4.18;;;13.60;59.80;;;;;;5079887;28;20055;-63
2024/03/09 10:43:55;;;;;;;7.72;4.25;;;13.80;59.30;;;;;;5084792;28;20024;-62
2024/03/09 10:46:27;;;;;;;6.97;4.32;;;13.80;59.20;;;;;;5071298;28;20166;-63
2024/03/09 10:48:57;;;;;;;8.90;3.95;;;13.80;59.60;;;;;;5075064;28;20032;-61
2024/03/09 10:51:42;;;;;;;6.75;3.72;;;13.80;59.40;;;;;;5073814;28;20036;-63
2024/03/09 10:54:23;;;;;;;8.15;4.30;;;13.90;59.60;;;;;;5084039;28;20027;-62
2024/03/09 10:56:51;;;;;;;10.70;4.70;;;14.10;59.30;;;;;;5077369;28;20382;-62
2024/03/09 10:59:23;;;;;;;7.68;3.90;;;14.20;58.90;;;;;;5088245;28;20020;-63
2024/03/09 11:01:52;;;;;;;10.52;4.63;;;14.30;58.60;;;;;;5076063;28;20032;-62
2024/03/09 11:04:19;;;;;;;12.00;4.78;;;14.40;58.60;;;;;;5078201;28;20028;-65
2024/03/09 11:06:47;;;;;;;7.50;4.45;;;14.60;58.50;;;;;;5081434;28;20036;-63
2024/03/09 11:09:17;;;;;;;5.93;3.40;;;15.00;58.30;;;;;;5076636;28;20028;-62
2024/03/09 11:11:45;;;;;;;9.90;4.18;;;15.20;57.30;;;;;;5076647;28;20028;-62
2024/03/09 11:14:22;;;;;;;8.32;4.10;;;15.20;57.10;;;;;;5079038;28;20135;-62
2024/03/09 11:16:52;;;;;;;8.68;4.03;;;15.20;57.20;;;;;;5081835;28;20020;-63
2024/03/09 11:19:18;;;;;;;8.30;4.28;;;15.40;57.20;;;;;;5080006;28;20055;-62
2024/03/09 11:21:48;;;;;;;7.20;3.60;;;15.60;56.60;;;;;;5066952;28;20558;-62
2024/03/09 11:24:14;;;;;;;9.13;5.25;;;15.80;56.30;;;;;;5081469;28;20031;-62
2024/03/09 11:26:54;;;;;;;9.02;4.30;;;15.80;55.90;;;;;;5084885;28;20429;-62
2024/03/09 11:29:28;;;;;;;8.38;3.88;;;15.90;56.00;;;;;;5085470;28;20034;-62
2024/03/09 11:31:58;;;;;;;7.65;4.68;;;16.10;55.70;;;;;;5086186;28;20055;-62
2024/03/09 11:34:26;;;;;;;9.38;4.65;;;16.30;55.30;;;;;;5084853;28;20032;-62
2024/03/09 11:37:00;;;;;;;7.75;4.07;;;16.10;55.00;;;;;;5081132;28;20094;-62
2024/03/09 11:39:33;;;;;;;7.40;3.65;;;15.80;55.30;;;;;;5082517;28;20048;-62
2024/03/09 11:42:00;;;;;;;6.53;3.63;;;15.60;55.90;;;;;;5081097;28;20025;-62
2024/03/09 11:44:33;;;;;;;5.57;3.13;;;15.30;56.00;;;;;;5085000;28;20408;-63
2024/03/09 11:47:00;;;;;;;7.88;3.63;;;15.20;56.50;;;;;;5084385;28;20179;-62
2024/03/09 11:49:27;;;;;;;7.60;3.95;;;15.20;56.60;;;;;;5075095;28;20032;-63
2024/03/09 11:51:56;;;;;;;8.52;4.68;;;15.40;56.60;;;;;;5082814;28;20032;-62
2024/03/09 11:54:23;;;;;;;5.25;2.88;;;15.60;55.80;;;;;;5086347;28;20399;-62
2024/03/09 11:56:51;;;;;;;7.85;3.38;;;15.70;55.80;;;;;;5083982;28;20081;-62
2024/03/09 11:59:17;;;;;;;7.22;3.42;;;15.80;55.90;;;;;;5086123;28;20027;-65
2024/03/09 12:01:44;;;;;;;6.13;3.03;;;16.00;55.80;;;;;;5090473;28;20128;-65
2024/03/09 12:04:11;;;;;;;5.32;3.05;;;16.50;55.40;;;;;;5083869;28;20036;-65
2024/03/09 12:06:40;;;;;;;10.65;4.68;;;16.90;54.70;;;;;;5080223;28;20033;-65
2024/03/09 12:09:07;;;;;;;7.78;3.88;;;17.00;53.50;;;;;;5085273;28;20032;-65
2024/03/09 12:11:34;;;;;;;9.10;4.32;;;17.00;53.70;;;;;;5085336;28;20051;-65
2024/03/09 12:14:00;;;;;;;10.55;3.67;;;17.00;53.60;;;;;;5086585;28;20118;-65
2024/03/09 12:16:28;;;;;;;6.53;3.03;;;17.00;53.70;;;;;;5082059;28;20028;-65
2024/03/09 12:18:56;;;;;;;6.32;4.15;;;17.10;53.80;;;;;;5075228;28;20027;-66
2024/03/09 12:21:25;;;;;;;16.90;3.63;;;17.30;53.70;;;;;;5083754;28;20357;-65
2024/03/09 12:23:53;;;;;;;6.43;3.80;;;17.50;53.30;;;;;;5077455;28;20081;-65
2024/03/09 12:26:20;;;;;;;5.55;2.85;;;17.40;53.10;;;;;;5084773;28;20012;-65
2024/03/09 12:28:46;;;;;;;10.23;3.55;;;17.10;53.20;;;;;;5078677;28;20032;-65
2024/03/09 12:31:16;;;;;;;6.55;3.65;;;16.90;53.70;;;;;;5088561;28;20024;-65
2024/03/09 12:33:44;;;;;;;6.57;3.45;;;16.70;54.10;;;;;;5085380;28;20047;-65
2024/03/09 12:36:17;;;;;;;6.50;3.80;;;16.60;54.30;;;;;;5084782;28;20083;-65
2024/03/09 12:38:44;;;;;;;6.05;3.22;;;16.60;54.20;;;;;;5083101;28;20532;-65
2024/03/09 12:41:31;;;;;;;7.50;4.55;;;16.70;54.30;;;;;;5063812;28;20048;-65
2024/03/09 12:44:04;;;;;;;7.72;3.47;;;16.90;53.90;;;;;;5082501;28;20497;-65
2024/03/09 12:46:34;;;;;;;6.40;3.33;;;17.20;53.70;;;;;;5084006;28;20446;-65
2024/03/09 12:49:04;;;;;;;8.70;4.28;;;17.50;53.20;;;;;;5083982;28;20020;-65
2024/03/09 12:51:32;;;;;;;7.13;3.60;;;17.60;52.90;;;;;;5084708;28;20032;-65
2024/03/09 12:54:06;;;;;;;7.00;3.67;;;17.60;52.80;;;;;;5083220;28;20047;-65